Jacksonville International Airport
KJAX : now visible

Aeroporto :











RITROVATECI SU...

 
LOGIN :

Iscrizione | Disclaimer

   EN    FR    IT 

 









Sommario :    VFR   VFR Marginale   IFR   IFR Intensivo   IFR Molto Intensivo
Visibilità : 
Base nubi : 
>= 8 km
>= 3000ft
5 / 8 km
1000 / 3000 ft
1500m / 5 km
500 / 1000 ft
800 / 1500m
200 / 500 ft
< 800m
< 200 ft
Simboli :   Temporali  Nebbia  Neve Forte  Precipitazioni Forti  Vento > 20 kt







- Altitudine del aeroporto : 30 ft
- Codice IATA : JAX


KJAX - Jacksonville International

ULTIMO METAR :
  • 251156Z 34008KT 9SM FEW003 SCT019 BKN044 BKN200 26/24 A2997 RMK AO2 SLP150 T02560244 10256 20244 53017

METARs OBSOLETI :
  • 251106Z 34008KT 10SM SCT003 BKN019 25/24 A2996 RMK AO2 T02500239
  • 251056Z 32009KT 10SM FEW003 SCT016 BKN200 24/24 A2996 RMK AO2 SLP144 T02440239
  • 250956Z 31004KT 10SM FEW002 FEW016 SCT250 24/24 A2994 RMK AO2 SLP137 T02440239

TAF KJAX
Valido dal 25 a 12 ore il 26 a 12 ore UTC


251120Z 2512/2612 35007KT P6SM VCSH SCT003 SCT015 SCT250
TEMPO 2512/2514 BKN015
FM251400 04009KT P6SM VCSH BKN020
FM252300 04006KT P6SM SCT025 BKN250
FM260200 03003KT P6SM SCT030 BKN250
Nessun NOTAM noto per questo aeroporto.



MetMap, La meteo Aeronautica in un colpo d'occhio ! - Copyright ORBIFLY Dicembre 2007 - Disclaimer

ORBIFLY MET'MAP TEAM :

Programmazione e sviluppo : Alexandra Zaïnal
Concezione e sviluppo : Baudouin d'Aumeries
Co-Programmazione e sviluppo : Marc-Olivier Méhu
Supporto tecnico e logistico : Manuel Goepfert
Aiuto per la traduzione : Arnaldo La Scala

Contatto : metmap@orbifly.com




FONTI E CREDITI :

   NOAA       Earth
Advisory